createdAt,value
2023-03-02T00:01:48.511Z,0.10
2023-03-02T00:04:20.852Z,0.10
2023-03-02T00:06:49.133Z,0.10
2023-03-02T00:09:16.243Z,0.10
2023-03-02T00:11:45.609Z,0.10
2023-03-02T00:14:12.438Z,0.10
2023-03-02T00:16:40.261Z,0.10
2023-03-02T00:19:07.411Z,0.10
2023-03-02T00:21:34.419Z,0.10
2023-03-02T00:24:01.176Z,0.00
2023-03-02T00:26:28.059Z,0.00
2023-03-02T00:28:55.043Z,0.00
2023-03-02T00:31:22.137Z,-0.10
2023-03-02T00:33:48.975Z,-0.10
2023-03-02T00:36:17.406Z,-0.10
2023-03-02T00:38:44.741Z,-0.20
2023-03-02T00:41:13.119Z,-0.10
2023-03-02T00:43:40.085Z,-0.20
2023-03-02T00:46:18.702Z,-0.20
2023-03-02T00:48:45.840Z,-0.20
2023-03-02T00:51:13.388Z,-0.20
2023-03-02T00:53:40.682Z,-0.30
2023-03-02T00:56:08.763Z,-0.20
2023-03-02T00:58:36.136Z,-0.20
2023-03-02T01:01:09.109Z,-0.20
2023-03-02T01:03:36.780Z,-0.30
2023-03-02T01:06:04.920Z,-0.20
2023-03-02T01:08:32.108Z,-0.20
2023-03-02T01:11:01.443Z,-0.20
2023-03-02T01:13:28.626Z,-0.20
2023-03-02T01:16:04.984Z,-0.20
2023-03-02T01:18:33.056Z,-0.30
2023-03-02T01:21:04.695Z,-0.30
2023-03-02T01:23:31.539Z,-0.30
2023-03-02T01:25:58.324Z,-0.40
2023-03-02T01:28:25.243Z,-0.40
2023-03-02T01:30:52.215Z,-0.30
2023-03-02T01:33:19.093Z,-0.40
2023-03-02T01:35:47.023Z,-0.40
2023-03-02T01:38:14.256Z,-0.40
2023-03-02T01:40:41.141Z,-0.40
2023-03-02T01:43:17.278Z,-0.50
2023-03-02T01:45:54.649Z,-0.50
2023-03-02T01:48:32.809Z,-0.50
2023-03-02T01:51:01.917Z,-0.50
2023-03-02T01:53:31.533Z,-0.50
2023-03-02T01:55:59.591Z,-0.50
2023-03-02T01:58:28.628Z,-0.50
2023-03-02T02:00:56.595Z,-0.60
2023-03-02T02:03:26.276Z,-0.60
2023-03-02T02:06:12.294Z,-0.60
2023-03-02T02:08:39.910Z,-0.60
2023-03-02T02:11:07.110Z,-0.60
2023-03-02T02:13:33.952Z,-0.60
2023-03-02T02:16:00.950Z,-0.60
2023-03-02T02:18:27.952Z,-0.60
2023-03-02T02:20:55.724Z,-0.60
2023-03-02T02:23:28.331Z,-0.60
2023-03-02T02:26:02.025Z,-0.60
2023-03-02T02:28:40.113Z,-0.60
2023-03-02T02:31:23.612Z,-0.60
2023-03-02T02:33:56.226Z,-0.60
2023-03-02T02:36:33.682Z,-0.70
2023-03-02T02:39:04.342Z,-0.60
2023-03-02T02:41:35.253Z,-0.70
2023-03-02T02:44:02.115Z,-0.70
2023-03-02T02:46:29.220Z,-0.70
2023-03-02T02:48:56.116Z,-0.80
2023-03-02T02:51:26.712Z,-0.70
2023-03-02T02:54:00.096Z,-0.80
2023-03-02T02:56:36.496Z,-0.80
2023-03-02T02:59:13.254Z,-0.80
2023-03-02T03:01:40.143Z,-0.80
2023-03-02T03:04:07.229Z,-0.80
2023-03-02T03:06:42.129Z,-0.80
2023-03-02T03:09:10.762Z,-0.80
2023-03-02T03:11:42.270Z,-0.80
2023-03-02T03:14:15.575Z,-0.80
2023-03-02T03:16:46.213Z,-0.80
2023-03-02T03:19:23.701Z,-0.80
2023-03-02T03:21:52.985Z,-0.80
2023-03-02T03:24:20.732Z,-0.80
2023-03-02T03:26:48.049Z,-0.90
2023-03-02T03:29:15.815Z,-0.80
2023-03-02T03:31:42.929Z,-0.90
2023-03-02T03:34:11.241Z,-0.80
2023-03-02T03:36:38.439Z,-0.80
2023-03-02T03:39:06.103Z,-0.90
2023-03-02T03:41:35.817Z,-0.90
2023-03-02T03:44:03.250Z,-0.90
2023-03-02T03:46:30.690Z,-0.90
2023-03-02T03:48:57.868Z,-1.00
2023-03-02T03:51:25.135Z,-0.90
2023-03-02T03:54:00.268Z,-0.90
2023-03-02T03:56:29.372Z,-1.00
2023-03-02T03:59:06.931Z,-1.00
2023-03-02T04:01:40.227Z,-1.00
2023-03-02T04:04:10.801Z,-1.00
2023-03-02T04:06:37.684Z,-1.00
2023-03-02T04:09:05.719Z,-1.00
2023-03-02T04:11:34.903Z,-1.00
2023-03-02T04:14:02.223Z,-1.10
2023-03-02T04:16:30.580Z,-1.10
2023-03-02T04:18:58.158Z,-1.10
2023-03-02T04:21:25.115Z,-1.10
2023-03-02T04:23:51.956Z,-1.10
2023-03-02T04:26:19.174Z,-1.10
2023-03-02T04:28:46.073Z,-1.10
2023-03-02T04:31:12.897Z,-1.10
2023-03-02T04:33:39.656Z,-1.20
2023-03-02T04:36:06.908Z,-1.20
2023-03-02T04:38:33.724Z,-1.30
2023-03-02T04:41:00.546Z,-1.30
2023-03-02T04:43:27.295Z,-1.30
2023-03-02T04:45:54.497Z,-1.30
2023-03-02T04:48:22.328Z,-1.30
2023-03-02T04:50:49.228Z,-1.40
2023-03-02T04:53:16.793Z,-1.50
2023-03-02T04:55:43.662Z,-1.40
2023-03-02T04:58:10.535Z,-1.50
2023-03-02T05:00:37.352Z,-1.50
2023-03-02T05:03:05.441Z,-1.50
2023-03-02T05:05:32.910Z,-1.50
2023-03-02T05:07:59.822Z,-1.50
2023-03-02T05:10:27.816Z,-1.50
2023-03-02T05:12:55.013Z,-1.50
2023-03-02T05:15:23.135Z,-1.50
2023-03-02T05:17:49.909Z,-1.60
2023-03-02T05:20:17.419Z,-1.60
2023-03-02T05:22:44.186Z,-1.60
2023-03-02T05:25:11.227Z,-1.60
2023-03-02T05:27:38.453Z,-1.60
2023-03-02T05:30:06.770Z,-1.70
2023-03-02T05:32:33.602Z,-1.70
2023-03-02T05:35:00.542Z,-1.80
2023-03-02T05:37:27.285Z,-1.80
2023-03-02T05:39:54.076Z,-1.80
2023-03-02T05:42:20.850Z,-1.80
2023-03-02T05:44:47.614Z,-1.80
2023-03-02T05:47:14.414Z,-1.80
2023-03-02T05:49:41.166Z,-1.80
2023-03-02T05:52:07.957Z,-1.80
2023-03-02T05:54:34.667Z,-1.80
2023-03-02T05:57:01.380Z,-1.80
2023-03-02T05:59:28.109Z,-1.80
2023-03-02T06:01:58.781Z,-1.80
2023-03-02T06:04:26.084Z,-1.80
2023-03-02T06:06:52.866Z,-1.80
2023-03-02T06:09:19.890Z,-1.80
2023-03-02T06:11:46.635Z,-1.80
2023-03-02T06:14:13.508Z,-1.80
2023-03-02T06:16:40.644Z,-1.80
2023-03-02T06:19:07.458Z,-1.80
2023-03-02T06:21:34.337Z,-1.80
2023-03-02T06:24:01.083Z,-1.80
2023-03-02T06:26:27.825Z,-1.80
2023-03-02T06:28:54.565Z,-1.80
2023-03-02T06:31:22.191Z,-1.80
2023-03-02T06:33:49.031Z,-1.80
2023-03-02T06:36:17.080Z,-1.70
2023-03-02T06:38:44.242Z,-1.70
2023-03-02T06:41:11.016Z,-1.70
2023-03-02T06:43:37.735Z,-1.70
2023-03-02T06:46:04.718Z,-1.60
2023-03-02T06:48:31.540Z,-1.60
2023-03-02T06:50:58.527Z,-1.60
2023-03-02T06:53:25.346Z,-1.50
2023-03-02T06:55:52.447Z,-1.40
2023-03-02T06:58:19.633Z,-1.40
2023-03-02T07:00:46.447Z,-1.30
2023-03-02T07:03:13.319Z,-1.30
2023-03-02T07:05:40.173Z,-1.20
2023-03-02T07:08:07.078Z,-1.20
2023-03-02T07:10:33.850Z,-1.20
2023-03-02T07:13:00.747Z,-1.10
2023-03-02T07:15:27.499Z,-1.10
2023-03-02T07:17:54.250Z,-1.00
2023-03-02T07:20:21.109Z,-1.00
2023-03-02T07:22:47.887Z,-1.00
2023-03-02T07:25:14.700Z,-1.00
2023-03-02T07:27:41.893Z,-0.90
2023-03-02T07:30:09.827Z,-0.90
2023-03-02T07:32:36.636Z,-0.90
2023-03-02T07:35:03.774Z,-0.80
2023-03-02T07:37:30.536Z,-0.80
2023-03-02T07:39:59.190Z,-0.70
2023-03-02T07:42:27.061Z,-0.70
2023-03-02T07:44:54.325Z,-0.60
2023-03-02T07:47:21.331Z,-0.60
2023-03-02T07:49:48.050Z,-0.60
2023-03-02T07:52:15.055Z,-0.50
2023-03-02T07:54:41.857Z,-0.40
2023-03-02T07:57:08.582Z,-0.40
2023-03-02T07:59:35.291Z,-0.30
2023-03-02T08:02:02.093Z,-0.30
2023-03-02T08:04:28.849Z,-0.30
2023-03-02T08:06:55.596Z,-0.20
2023-03-02T08:09:22.338Z,-0.10
2023-03-02T08:11:49.117Z,-0.10
2023-03-02T08:14:15.834Z,0.00
2023-03-02T08:16:42.726Z,0.10
2023-03-02T08:19:09.566Z,0.10
2023-03-02T08:21:36.383Z,0.20
2023-03-02T08:24:03.563Z,0.30
2023-03-02T08:26:30.806Z,0.30
2023-03-02T08:28:58.466Z,0.40
2023-03-02T08:31:25.536Z,0.40
2023-03-02T08:33:52.353Z,0.50
2023-03-02T08:36:19.872Z,0.60
2023-03-02T08:38:48.178Z,0.60
2023-03-02T08:41:18.094Z,0.70
2023-03-02T08:43:45.090Z,0.80
2023-03-02T08:46:14.021Z,1.00
2023-03-02T08:48:41.069Z,1.00
2023-03-02T08:51:17.112Z,1.10
2023-03-02T08:53:46.684Z,1.30
2023-03-02T08:56:20.532Z,1.40
2023-03-02T08:58:48.974Z,1.60
2023-03-02T09:01:22.115Z,1.70
2023-03-02T09:03:49.143Z,1.90
2023-03-02T09:06:16.142Z,2.10
2023-03-02T09:08:43.314Z,2.20
2023-03-02T09:11:10.107Z,2.40
2023-03-02T09:13:37.335Z,2.50
2023-03-02T09:16:04.642Z,2.60
2023-03-02T09:18:32.019Z,2.70
2023-03-02T09:20:58.768Z,2.80
2023-03-02T09:23:27.030Z,3.00
2023-03-02T09:25:54.582Z,3.00
2023-03-02T09:28:21.938Z,3.10
2023-03-02T09:30:50.477Z,3.20
2023-03-02T09:33:17.264Z,3.30
2023-03-02T09:35:44.089Z,3.40
2023-03-02T09:38:15.924Z,3.50
2023-03-02T09:41:07.382Z,3.50
2023-03-02T09:44:12.573Z,3.40
2023-03-02T09:47:54.477Z,3.50
2023-03-02T09:54:36.086Z,3.90
2023-03-02T09:57:04.505Z,4.30
2023-03-02T09:59:43.111Z,4.50
2023-03-02T10:02:18.596Z,4.70
2023-03-02T10:04:49.137Z,4.90
2023-03-02T10:07:36.745Z,5.20
2023-03-02T10:10:07.357Z,5.40
2023-03-02T10:12:42.921Z,5.50
2023-03-02T10:15:37.716Z,5.60
2023-03-02T10:18:18.378Z,5.60
2023-03-02T10:21:05.427Z,5.80
2023-03-02T10:23:48.206Z,5.90
2023-03-02T10:26:24.148Z,6.00
2023-03-02T10:29:05.511Z,5.90
2023-03-02T10:31:33.830Z,6.00
2023-03-02T10:34:01.026Z,6.20
2023-03-02T10:36:30.551Z,6.20
2023-03-02T10:39:00.526Z,6.30
2023-03-02T10:41:33.150Z,6.40
2023-03-02T10:44:06.313Z,6.40
2023-03-02T10:46:44.983Z,6.50
2023-03-02T10:49:41.924Z,6.50
2023-03-02T10:52:19.472Z,6.60
2023-03-02T10:54:47.530Z,6.60
2023-03-02T10:57:40.366Z,6.60
2023-03-02T11:00:25.982Z,6.60
2023-03-02T11:02:57.044Z,6.70
2023-03-02T11:05:38.314Z,6.80
2023-03-02T11:08:08.925Z,6.90
2023-03-02T11:10:50.930Z,7.10
2023-03-02T11:13:28.821Z,7.50
2023-03-02T11:16:01.503Z,7.60
2023-03-02T11:18:31.092Z,7.80
2023-03-02T11:21:08.906Z,7.90
2023-03-02T11:24:00.551Z,7.80
2023-03-02T11:26:33.979Z,7.70
2023-03-02T11:29:03.107Z,7.90
2023-03-02T11:31:49.261Z,7.90
2023-03-02T11:34:34.473Z,7.90
2023-03-02T11:37:34.605Z,8.10
2023-03-02T11:40:25.402Z,8.30
2023-03-02T11:42:56.059Z,8.50
2023-03-02T11:45:27.562Z,8.60
2023-03-02T11:48:02.463Z,8.50
2023-03-02T11:50:37.234Z,8.30
2023-03-02T11:53:11.814Z,8.30
2023-03-02T11:55:47.332Z,8.60
2023-03-02T11:58:34.919Z,8.60
2023-03-02T12:01:03.266Z,8.60
2023-03-02T12:03:32.878Z,8.90
2023-03-02T12:06:07.454Z,9.20
2023-03-02T12:08:43.977Z,9.20
2023-03-02T12:21:27.159Z,9.60
2023-03-02T12:23:58.348Z,9.50
2023-03-02T12:26:32.895Z,9.70
2023-03-02T12:29:13.899Z,9.80
2023-03-02T12:31:49.463Z,9.90
2023-03-02T12:34:25.219Z,10.10
2023-03-02T12:36:58.003Z,10.30
2023-03-02T12:39:48.522Z,10.40
2023-03-02T12:42:33.348Z,10.50
2023-03-02T12:45:24.717Z,10.30
2023-03-02T12:48:02.501Z,10.30
2023-03-02T12:50:33.869Z,10.50
2023-03-02T12:53:05.904Z,10.40
2023-03-02T12:55:34.351Z,10.30
2023-03-02T12:58:02.473Z,10.40
2023-03-02T13:00:34.139Z,10.30
2023-03-02T13:03:07.256Z,10.40
2023-03-02T13:05:37.540Z,10.20
2023-03-02T13:08:25.264Z,10.20
2023-03-02T13:10:54.455Z,10.20
2023-03-02T13:13:44.212Z,9.80
2023-03-02T13:16:32.508Z,9.60
2023-03-02T13:19:09.296Z,9.50
2023-03-02T13:21:38.895Z,9.40
2023-03-02T13:24:43.309Z,9.20
2023-03-02T13:27:18.013Z,9.30
2023-03-02T13:29:45.815Z,9.30
2023-03-02T13:32:20.414Z,9.30
2023-03-02T13:34:50.186Z,9.20
2023-03-02T13:37:21.644Z,9.20
2023-03-02T13:39:56.403Z,9.30
2023-03-02T13:42:28.827Z,9.30
2023-03-02T13:45:34.621Z,9.00
2023-03-02T13:48:16.083Z,9.10
2023-03-02T13:50:56.491Z,9.00
2023-03-02T13:53:24.447Z,9.00
2023-03-02T13:55:54.110Z,8.90
2023-03-02T14:02:28.010Z,9.00
2023-03-02T14:04:55.649Z,9.00
2023-03-02T14:07:22.809Z,8.90
2023-03-02T14:09:49.625Z,9.00
2023-03-02T14:12:54.824Z,9.10
2023-03-02T14:15:25.927Z,9.10
2023-03-02T14:17:52.833Z,9.10
2023-03-02T14:20:20.373Z,9.10
2023-03-02T14:22:48.033Z,9.10
2023-03-02T14:25:15.281Z,9.00
2023-03-02T14:27:43.495Z,9.00
2023-03-02T14:30:21.203Z,9.00
2023-03-02T14:32:48.228Z,9.00
2023-03-02T14:35:16.670Z,9.00
2023-03-02T14:37:48.417Z,8.90
2023-03-02T14:40:24.118Z,9.00
2023-03-02T14:42:53.998Z,8.90
2023-03-02T14:45:21.789Z,8.90
2023-03-02T14:47:49.039Z,8.80
2023-03-02T14:50:16.981Z,8.90
2023-03-02T14:53:04.004Z,8.80
2023-03-02T14:55:32.085Z,8.70
2023-03-02T14:58:22.632Z,8.60
2023-03-02T15:00:49.492Z,8.40
2023-03-02T15:03:20.296Z,8.40
2023-03-02T15:06:00.378Z,8.50
2023-03-02T15:08:27.476Z,8.40
2023-03-02T15:10:54.249Z,8.20
2023-03-02T15:13:21.006Z,8.20
2023-03-02T15:15:48.784Z,8.10
2023-03-02T15:18:17.297Z,8.00
2023-03-02T15:20:44.073Z,7.90
2023-03-02T15:23:10.799Z,7.80
2023-03-02T15:25:37.607Z,7.70
2023-03-02T15:28:04.513Z,7.60
2023-03-02T15:30:31.259Z,7.60
2023-03-02T15:33:02.110Z,7.50
2023-03-02T15:35:29.499Z,7.40
2023-03-02T15:37:58.307Z,7.20
2023-03-02T15:40:25.712Z,6.90
2023-03-02T15:42:53.123Z,6.80
2023-03-02T15:45:21.949Z,6.70
2023-03-02T15:47:48.700Z,6.60
2023-03-02T15:50:15.647Z,6.60
2023-03-02T15:52:42.409Z,6.40
2023-03-02T15:55:09.644Z,6.30
2023-03-02T15:57:39.691Z,6.30
2023-03-02T16:00:07.465Z,6.20
2023-03-02T16:02:34.879Z,6.10
2023-03-02T16:05:01.834Z,6.00
2023-03-02T16:07:29.971Z,5.90
2023-03-02T16:09:56.756Z,5.80
2023-03-02T16:12:26.023Z,5.70
2023-03-02T16:14:52.806Z,5.50
2023-03-02T16:17:19.618Z,5.50
2023-03-02T16:19:46.490Z,5.40
2023-03-02T16:22:13.337Z,5.20
2023-03-02T16:24:41.800Z,5.20
2023-03-02T16:27:08.952Z,5.10
2023-03-02T16:29:35.966Z,5.00
2023-03-02T16:32:02.938Z,4.80
2023-03-02T16:34:29.714Z,4.80
2023-03-02T16:36:56.500Z,4.70
2023-03-02T16:39:23.295Z,4.60
2023-03-02T16:41:51.306Z,4.60
2023-03-02T16:44:18.638Z,4.50
2023-03-02T16:46:46.175Z,4.40
2023-03-02T16:49:13.919Z,4.30
2023-03-02T16:51:42.290Z,4.20
2023-03-02T16:54:09.147Z,4.20
2023-03-02T16:56:35.991Z,4.10
2023-03-02T16:59:02.822Z,4.00
2023-03-02T17:01:29.683Z,3.90
2023-03-02T17:03:56.623Z,3.80
2023-03-02T17:06:24.230Z,3.80
2023-03-02T17:08:51.333Z,3.70
2023-03-02T17:11:19.288Z,3.60
2023-03-02T17:13:46.364Z,3.50
2023-03-02T17:16:13.491Z,3.40
2023-03-02T17:18:41.095Z,3.40
2023-03-02T17:21:08.254Z,3.30
2023-03-02T17:23:36.831Z,3.30
2023-03-02T17:26:04.054Z,3.20
2023-03-02T17:28:31.165Z,3.20
2023-03-02T17:30:58.070Z,3.10
2023-03-02T17:33:24.877Z,3.10
2023-03-02T17:35:52.149Z,3.00
2023-03-02T17:38:18.976Z,3.00
2023-03-02T17:40:45.756Z,3.00
2023-03-02T17:43:12.784Z,2.90
2023-03-02T17:45:39.926Z,2.90
2023-03-02T17:48:07.393Z,2.80
2023-03-02T17:50:34.238Z,2.80
2023-03-02T17:53:02.124Z,2.70
2023-03-02T17:55:29.304Z,2.60
2023-03-02T17:57:56.076Z,2.60
2023-03-02T18:00:23.952Z,2.60
2023-03-02T18:02:51.400Z,2.60
2023-03-02T18:05:18.759Z,2.50
2023-03-02T18:07:45.608Z,2.40
2023-03-02T18:10:13.275Z,2.40
2023-03-02T18:12:40.499Z,2.30
2023-03-02T18:15:08.042Z,2.30
2023-03-02T18:17:37.500Z,2.20
2023-03-02T18:20:04.741Z,2.10
2023-03-02T18:22:31.524Z,2.10
2023-03-02T18:24:58.254Z,2.10
2023-03-02T18:27:25.104Z,2.00
2023-03-02T18:29:51.916Z,2.00
2023-03-02T18:32:18.824Z,2.00
2023-03-02T18:34:45.604Z,1.90
2023-03-02T18:37:12.559Z,1.90
2023-03-02T18:39:39.488Z,1.90
2023-03-02T18:42:07.161Z,1.80
2023-03-02T18:44:34.731Z,1.70
2023-03-02T18:47:02.122Z,1.70
2023-03-02T18:49:30.981Z,1.60
2023-03-02T18:51:58.673Z,1.60
2023-03-02T18:54:25.377Z,1.60
2023-03-02T18:56:52.198Z,1.60
2023-03-02T18:59:21.956Z,1.50
2023-03-02T19:01:48.869Z,1.50
2023-03-02T19:04:15.743Z,1.50
2023-03-02T19:06:43.231Z,1.50
2023-03-02T19:09:10.504Z,1.40
2023-03-02T19:11:37.489Z,1.40
2023-03-02T19:14:04.366Z,1.30
2023-03-02T19:16:31.333Z,1.30
2023-03-02T19:18:58.158Z,1.20
2023-03-02T19:21:24.925Z,1.20
2023-03-02T19:23:51.872Z,1.20
2023-03-02T19:26:20.900Z,1.10
2023-03-02T19:28:47.674Z,1.10
2023-03-02T19:31:14.560Z,1.10
2023-03-02T19:33:42.402Z,1.10
2023-03-02T19:36:10.062Z,1.10
2023-03-02T19:38:40.640Z,1.00
2023-03-02T19:41:09.297Z,1.00
2023-03-02T19:43:36.718Z,0.90
2023-03-02T19:46:04.918Z,0.80
2023-03-02T19:48:32.019Z,0.80
2023-03-02T19:50:58.927Z,0.70
2023-03-02T19:53:25.718Z,0.70
2023-03-02T19:55:52.724Z,0.70
2023-03-02T19:58:20.443Z,0.60
2023-03-02T20:00:47.567Z,0.60
2023-03-02T20:03:14.429Z,0.60
2023-03-02T20:05:41.238Z,0.60
2023-03-02T20:08:08.060Z,0.50
2023-03-02T20:10:38.881Z,0.50
2023-03-02T20:13:06.637Z,0.50
2023-03-02T20:15:38.032Z,0.40
2023-03-02T20:18:07.389Z,0.40
2023-03-02T20:20:34.298Z,0.40
2023-03-02T20:23:01.186Z,0.40
2023-03-02T20:25:28.929Z,0.30
2023-03-02T20:27:56.237Z,0.30
2023-03-02T20:30:28.499Z,0.30
2023-03-02T20:32:57.282Z,0.20
2023-03-02T20:35:24.761Z,0.20
2023-03-02T20:37:53.599Z,0.10
2023-03-02T20:40:21.481Z,0.10
2023-03-02T20:42:48.838Z,0.10
2023-03-02T20:45:15.999Z,0.10
2023-03-02T20:47:45.485Z,0.00
2023-03-02T20:50:19.816Z,0.00
2023-03-02T20:52:46.757Z,-0.10
2023-03-02T20:55:14.566Z,-0.10
2023-03-02T20:57:41.498Z,-0.10
2023-03-02T21:00:11.874Z,-0.10
2023-03-02T21:02:38.662Z,-0.10
2023-03-02T21:05:06.344Z,-0.20
2023-03-02T21:07:35.713Z,-0.20
2023-03-02T21:10:05.434Z,-0.20
2023-03-02T21:12:33.316Z,-0.20
2023-03-02T21:15:02.038Z,-0.20
2023-03-02T21:17:30.751Z,-0.20
2023-03-02T21:19:58.481Z,-0.20
2023-03-02T21:22:25.311Z,-0.10
2023-03-02T21:24:53.029Z,-0.10
2023-03-02T21:27:20.734Z,-0.10
2023-03-02T21:29:48.035Z,-0.20
2023-03-02T21:32:15.445Z,-0.20
2023-03-02T21:34:42.245Z,-0.20
2023-03-02T21:37:09.083Z,-0.20
2023-03-02T21:39:35.855Z,-0.30
2023-03-02T21:42:03.565Z,-0.20
2023-03-02T21:44:30.305Z,-0.30
2023-03-02T21:46:57.204Z,-0.30
2023-03-02T21:49:24.051Z,-0.30
2023-03-02T21:51:50.947Z,-0.30
2023-03-02T21:54:17.721Z,-0.30
2023-03-02T21:56:44.775Z,-0.30
2023-03-02T21:59:12.188Z,-0.30
2023-03-02T22:01:40.960Z,-0.30
2023-03-02T22:04:08.968Z,-0.30
2023-03-02T22:06:37.668Z,-0.30
2023-03-02T22:09:04.881Z,-0.30
2023-03-02T22:11:38.607Z,-0.30
2023-03-02T22:14:15.395Z,-0.40
2023-03-02T22:16:46.722Z,-0.40
2023-03-02T22:19:38.506Z,-0.40
2023-03-02T22:22:19.277Z,-0.50
2023-03-02T22:24:50.450Z,-0.50
2023-03-02T22:27:20.467Z,-0.50
2023-03-02T22:29:50.154Z,-0.50
2023-03-02T22:32:27.742Z,-0.60
2023-03-02T22:35:08.945Z,-0.60
2023-03-02T22:37:40.681Z,-0.60
2023-03-02T22:40:24.420Z,-0.60
2023-03-02T22:42:58.882Z,-0.70
2023-03-02T22:45:25.675Z,-0.70
2023-03-02T22:47:53.451Z,-0.70
2023-03-02T22:50:29.845Z,-0.70
2023-03-02T22:52:58.050Z,-0.80
2023-03-02T22:55:35.146Z,-0.80
2023-03-02T22:58:27.174Z,-0.80
2023-03-02T23:00:54.567Z,-0.80
2023-03-02T23:03:24.066Z,-0.80
2023-03-02T23:05:52.915Z,-0.70
2023-03-02T23:08:26.804Z,-0.70
2023-03-02T23:10:59.208Z,-0.70
2023-03-02T23:13:39.734Z,-0.70
2023-03-02T23:16:22.576Z,-0.70
2023-03-02T23:18:49.840Z,-0.80
2023-03-02T23:21:21.117Z,-0.80
2023-03-02T23:23:49.727Z,-0.80
2023-03-02T23:26:19.555Z,-0.80
2023-03-02T23:28:50.872Z,-0.70
2023-03-02T23:31:21.361Z,-0.70
2023-03-02T23:33:48.528Z,-0.70
2023-03-02T23:36:15.906Z,-0.70
2023-03-02T23:38:42.789Z,-0.70
2023-03-02T23:41:09.987Z,-0.80
2023-03-02T23:43:36.980Z,-0.80
2023-03-02T23:46:04.082Z,-0.80
2023-03-02T23:48:31.165Z,-0.80
2023-03-02T23:50:58.390Z,-0.90
2023-03-02T23:53:25.791Z,-0.90
2023-03-02T23:55:54.627Z,-0.90
2023-03-02T23:58:22.298Z,-0.90
